KPHN

St Clair County International Airport

Port Huron, Michigan, USA
METAR KPHN 261316Z AUTO 00000KT 10SM OVC085 20/15 A2980 RMK AO2
Observed Flight Rules
May-26 @ 13:16 UTC (15 minutes ago) Visual Flight Rules
Visibility Clouds
10 miles
  • Overcast at 8,500' AGL
Temperatures Readings
Current 20°C / 68°F
Dewpoint 15°C / 59°F
Humidity 73%
Altimeter 29.8" Hg
Pressure 1009 hPa
Elevation 198
METAR KPHN 261316Z AUTO 00000KT 10SM OVC085 20/15 A2980 RMK AO2
Observed Flight Rules
May-26 @ 13:16 UTC
(15 minutes ago)
VFR
Clouds
  • Overcast at 8,500' AGL
Temperature Dewpoint
20°C / 68°F 15°C / 59°F
Humidity Altimeter Pressure
73% 29.8" Hg 1009 hPa